createdAt,value
2017-05-18T00:01:08.517Z,6.55
2017-05-18T00:03:37.686Z,5.72
2017-05-18T00:06:05.969Z,5.83
2017-05-18T00:08:34.253Z,5.85
2017-05-18T00:11:02.561Z,6.28
2017-05-18T00:13:31.590Z,6.32
2017-05-18T00:15:59.928Z,6.75
2017-05-18T00:18:28.214Z,6.02
2017-05-18T00:20:56.497Z,6.08
2017-05-18T00:23:25.542Z,7.10
2017-05-18T00:25:53.821Z,6.63
2017-05-18T00:28:22.146Z,6.42
2017-05-18T00:30:50.428Z,6.70
2017-05-18T00:33:23.150Z,6.55
2017-05-18T00:35:51.444Z,7.35
2017-05-18T00:38:19.717Z,6.75
2017-05-18T00:40:48.007Z,6.70
2017-05-18T00:43:16.293Z,7.15
2017-05-18T00:45:44.622Z,6.37
2017-05-18T00:48:12.913Z,6.15
2017-05-18T00:50:41.201Z,7.05
2017-05-18T00:53:09.509Z,6.63
2017-05-18T00:55:37.798Z,6.38
2017-05-18T00:58:06.112Z,6.77
2017-05-18T01:00:34.391Z,6.68
2017-05-18T01:03:02.689Z,6.40
2017-05-18T01:05:30.994Z,6.95
2017-05-18T01:07:59.287Z,6.32
2017-05-18T01:10:27.597Z,6.48
2017-05-18T01:12:56.617Z,7.28
2017-05-18T01:15:24.906Z,6.07
2017-05-18T01:17:53.223Z,6.42
2017-05-18T01:20:21.505Z,6.48
2017-05-18T01:22:49.825Z,6.60
2017-05-18T01:25:18.097Z,7.18
2017-05-18T01:27:46.394Z,7.33
2017-05-18T01:30:14.690Z,7.70
2017-05-18T01:32:42.979Z,7.95
2017-05-18T01:35:11.309Z,7.65
2017-05-18T01:37:39.594Z,7.35
2017-05-18T01:40:07.885Z,7.68
2017-05-18T01:42:36.189Z,8.20
2017-05-18T01:45:04.517Z,6.88
2017-05-18T01:47:32.845Z,6.68
2017-05-18T01:50:01.130Z,7.07
2017-05-18T01:52:29.420Z,7.77
2017-05-18T01:54:58.491Z,8.05
2017-05-18T01:57:26.766Z,7.95
2017-05-18T01:59:55.089Z,7.37
2017-05-18T02:02:24.122Z,6.92
2017-05-18T02:04:52.401Z,7.03
2017-05-18T02:07:20.721Z,8.32
2017-05-18T02:09:48.997Z,7.40
2017-05-18T02:12:17.274Z,8.33
2017-05-18T02:14:45.589Z,8.60
2017-05-18T02:17:13.870Z,7.62
2017-05-18T02:19:42.150Z,7.95
2017-05-18T02:22:10.460Z,7.97
2017-05-18T02:24:38.753Z,8.87
2017-05-18T02:27:07.080Z,8.78
2017-05-18T02:29:35.364Z,7.92
2017-05-18T02:32:03.646Z,8.32
2017-05-18T02:34:31.965Z,8.55
2017-05-18T02:37:00.246Z,7.60
2017-05-18T02:39:28.566Z,8.50
2017-05-18T02:41:57.596Z,9.07
2017-05-18T02:44:25.885Z,9.13
2017-05-18T02:46:54.193Z,8.08
2017-05-18T02:49:22.473Z,8.02
2017-05-18T02:51:50.799Z,8.87
2017-05-18T02:54:19.087Z,7.82
2017-05-18T02:56:47.374Z,8.40
2017-05-18T02:59:15.681Z,8.45
2017-05-18T03:01:43.968Z,7.80
2017-05-18T03:04:12.291Z,7.73
2017-05-18T03:06:40.584Z,7.17
2017-05-18T03:09:08.868Z,8.08
2017-05-18T03:11:37.157Z,8.43
2017-05-18T03:14:05.437Z,8.15
2017-05-18T03:16:33.754Z,8.55
2017-05-18T03:19:02.785Z,8.38
2017-05-18T03:21:31.062Z,7.97
2017-05-18T03:23:59.408Z,7.68
2017-05-18T03:26:28.429Z,7.47
2017-05-18T03:28:56.736Z,7.88
2017-05-18T03:31:25.017Z,6.88
2017-05-18T03:33:53.310Z,6.72
2017-05-18T03:36:21.613Z,7.93
2017-05-18T03:38:50.638Z,8.48
2017-05-18T03:41:18.958Z,7.83
2017-05-18T03:43:47.253Z,7.20
2017-05-18T03:46:16.286Z,7.58
2017-05-18T03:48:44.638Z,8.40
2017-05-18T03:51:13.667Z,7.37
2017-05-18T03:53:41.973Z,7.62
2017-05-18T03:56:10.257Z,8.08
2017-05-18T03:58:38.542Z,7.63
2017-05-18T04:01:06.848Z,7.87
2017-05-18T04:03:35.883Z,7.13
2017-05-18T04:06:04.283Z,7.50
2017-05-18T04:08:32.561Z,7.75
2017-05-18T04:11:00.840Z,8.20
2017-05-18T04:13:29.133Z,7.55
2017-05-18T04:15:57.409Z,7.75
2017-05-18T04:18:25.718Z,7.93
2017-05-18T04:20:54.749Z,7.03
2017-05-18T04:23:23.042Z,7.20
2017-05-18T04:25:51.345Z,7.45
2017-05-18T04:28:19.649Z,8.12
2017-05-18T04:30:48.704Z,8.25
2017-05-18T04:33:16.988Z,7.87
2017-05-18T04:35:45.289Z,8.25
2017-05-18T04:38:13.597Z,9.00
2017-05-18T04:40:41.884Z,8.95
2017-05-18T04:43:10.194Z,7.82
2017-05-18T04:45:38.481Z,9.08
2017-05-18T04:48:06.764Z,8.83
2017-05-18T04:50:35.076Z,9.23
2017-05-18T04:53:03.369Z,8.62
2017-05-18T04:55:31.702Z,7.13
2017-05-18T04:58:00.058Z,6.63
2017-05-18T05:00:28.344Z,7.33
2017-05-18T05:02:56.664Z,7.15
2017-05-18T05:05:24.956Z,7.38
2017-05-18T05:07:53.294Z,7.34
2017-05-18T05:10:21.576Z,7.34
2017-05-18T05:12:49.872Z,7.40
2017-05-18T05:15:18.915Z,8.12
2017-05-18T05:17:47.211Z,6.96
2017-05-18T05:20:15.550Z,7.94
2017-05-18T05:22:43.841Z,7.46
2017-05-18T05:25:12.141Z,9.32
2017-05-18T05:27:40.485Z,6.92
2017-05-18T05:30:08.776Z,7.56
2017-05-18T05:32:37.118Z,6.86
2017-05-18T05:35:06.151Z,7.46
2017-05-18T05:37:34.442Z,8.16
2017-05-18T05:40:02.753Z,7.84
2017-05-18T05:42:31.033Z,6.90
2017-05-18T05:44:59.361Z,7.58
2017-05-18T05:47:27.653Z,7.64
2017-05-18T05:49:55.942Z,7.20
2017-05-18T05:52:24.255Z,7.16
2017-05-18T05:54:53.286Z,6.78
2017-05-18T05:57:21.708Z,6.72
2017-05-18T05:59:49.998Z,10.90
2017-05-18T06:02:18.293Z,7.90
2017-05-18T06:04:47.341Z,6.58
2017-05-18T06:07:15.624Z,7.30
2017-05-18T06:09:43.942Z,6.70
2017-05-18T06:12:12.977Z,7.54
2017-05-18T06:14:41.287Z,7.40
2017-05-18T06:17:09.574Z,6.92
2017-05-18T06:19:37.863Z,7.68
2017-05-18T06:22:06.168Z,6.74
2017-05-18T06:24:34.470Z,7.28
2017-05-18T06:27:02.785Z,7.40
2017-05-18T06:29:31.068Z,7.44
2017-05-18T06:31:59.357Z,7.24
2017-05-18T06:34:28.423Z,7.14
2017-05-18T06:36:56.720Z,6.78
2017-05-18T06:39:25.191Z,7.04
2017-05-18T06:41:53.459Z,6.02
2017-05-18T06:44:21.760Z,6.98
2017-05-18T06:46:50.069Z,6.38
2017-05-18T06:49:18.397Z,6.84
2017-05-18T06:51:46.730Z,7.88
2017-05-18T06:54:15.016Z,7.56
2017-05-18T06:56:43.307Z,7.88
2017-05-18T06:59:11.625Z,6.96
2017-05-18T07:01:39.937Z,7.46
2017-05-18T07:04:08.361Z,7.72
2017-05-18T07:06:36.654Z,7.16
2017-05-18T07:09:04.941Z,8.22
2017-05-18T07:11:33.268Z,9.00
2017-05-18T07:14:01.619Z,6.76
2017-05-18T07:16:30.722Z,7.12
2017-05-18T07:18:59.761Z,7.20
2017-05-18T07:21:28.045Z,6.52
2017-05-18T07:23:56.828Z,7.02
2017-05-18T07:26:25.132Z,7.08
2017-05-18T07:28:53.443Z,8.30
2017-05-18T07:31:22.478Z,6.98
2017-05-18T07:33:50.775Z,7.70
2017-05-18T07:36:19.084Z,7.68
2017-05-18T07:38:48.125Z,8.28
2017-05-18T07:41:16.486Z,8.32
2017-05-18T07:43:44.812Z,7.90
2017-05-18T07:46:13.109Z,7.74
2017-05-18T07:48:41.465Z,7.68
2017-05-18T07:51:09.777Z,7.98
2017-05-18T07:53:38.876Z,7.62
2017-05-18T07:56:07.991Z,7.30
2017-05-18T07:58:36.284Z,7.62
2017-05-18T08:01:04.597Z,7.80
2017-05-18T08:03:32.878Z,7.90
2017-05-18T08:06:01.198Z,7.76
2017-05-18T08:08:30.222Z,8.22
2017-05-18T08:10:58.508Z,8.18
2017-05-18T08:13:26.820Z,8.86
2017-05-18T08:15:55.118Z,8.86
2017-05-18T08:18:24.189Z,8.86
2017-05-18T08:20:52.473Z,8.04
2017-05-18T08:23:20.758Z,9.14
2017-05-18T08:25:49.073Z,8.32
2017-05-18T08:28:17.401Z,7.82
2017-05-18T08:30:45.709Z,7.84
2017-05-18T08:33:14.044Z,8.98
2017-05-18T08:35:42.361Z,8.46
2017-05-18T08:38:11.423Z,7.90
2017-05-18T08:40:39.729Z,8.02
2017-05-18T08:43:08.037Z,8.62
2017-05-18T08:45:36.313Z,8.54
2017-05-18T08:48:04.656Z,8.20
2017-05-18T08:50:32.945Z,9.70
2017-05-18T08:53:01.976Z,7.50
2017-05-18T08:55:30.283Z,8.52
2017-05-18T08:57:58.589Z,8.48
2017-05-18T09:00:26.912Z,7.42
2017-05-18T09:02:55.210Z,8.22
2017-05-18T09:05:23.497Z,7.70
2017-05-18T09:07:51.804Z,7.70
2017-05-18T09:10:20.094Z,7.68
2017-05-18T09:12:49.162Z,7.94
2017-05-18T09:15:17.441Z,8.26
2017-05-18T09:17:45.722Z,7.80
2017-05-18T09:20:14.024Z,8.70
2017-05-18T09:22:42.319Z,7.28
2017-05-18T09:25:11.381Z,7.84
2017-05-18T09:27:39.675Z,8.08
2017-05-18T09:30:08.746Z,7.00
2017-05-18T09:32:37.038Z,8.26
2017-05-18T09:35:05.397Z,7.28
2017-05-18T09:37:33.713Z,7.40
2017-05-18T09:40:02.777Z,8.78
2017-05-18T09:42:31.101Z,7.44
2017-05-18T09:45:00.125Z,7.86
2017-05-18T09:47:28.410Z,8.22
2017-05-18T09:49:56.719Z,8.44
2017-05-18T09:52:25.007Z,8.10
2017-05-18T09:54:53.355Z,7.50
2017-05-18T09:57:21.648Z,7.32
2017-05-18T09:59:49.945Z,7.60
2017-05-18T10:02:18.246Z,7.44
2017-05-18T10:04:47.285Z,6.64
2017-05-18T10:07:15.622Z,7.96
2017-05-18T10:09:44.653Z,8.78
2017-05-18T10:12:12.946Z,7.28
2017-05-18T10:14:41.241Z,7.18
2017-05-18T10:17:09.531Z,7.46
2017-05-18T10:19:37.830Z,6.50
2017-05-18T10:22:06.863Z,5.68
2017-05-18T10:24:35.133Z,6.70
2017-05-18T10:27:03.449Z,6.26
2017-05-18T10:29:31.754Z,6.62
2017-05-18T10:32:00.812Z,6.24
2017-05-18T10:34:29.105Z,6.02
2017-05-18T10:36:58.145Z,7.24
2017-05-18T10:39:26.469Z,5.56
2017-05-18T10:41:54.761Z,5.96
2017-05-18T10:44:23.081Z,6.62
2017-05-18T10:46:51.365Z,6.30
2017-05-18T10:49:19.638Z,5.84
2017-05-18T10:51:47.950Z,5.62
2017-05-18T10:54:16.236Z,5.60
2017-05-18T10:56:44.561Z,5.20
2017-05-18T10:59:12.851Z,4.84
2017-05-18T11:01:41.180Z,5.66
2017-05-18T11:04:09.486Z,5.58
2017-05-18T11:06:37.781Z,5.66
2017-05-18T11:09:06.102Z,4.94
2017-05-18T11:11:34.393Z,5.54
2017-05-18T11:14:02.675Z,5.38
2017-05-18T11:16:31.020Z,5.34
2017-05-18T11:18:59.305Z,5.40
2017-05-18T11:21:27.614Z,5.68
2017-05-18T11:23:55.899Z,4.74
2017-05-18T11:26:24.934Z,4.72
2017-05-18T11:28:53.238Z,5.00
2017-05-18T11:31:21.545Z,5.00
2017-05-18T11:33:49.850Z,5.52
2017-05-18T11:36:18.880Z,5.32
2017-05-18T11:38:47.170Z,5.12
2017-05-18T11:41:15.469Z,5.38
2017-05-18T11:43:43.761Z,4.98
2017-05-18T11:46:12.834Z,5.14
2017-05-18T11:48:41.119Z,5.02
2017-05-18T11:51:09.487Z,5.42
2017-05-18T11:53:37.780Z,5.42
2017-05-18T11:56:06.065Z,4.90
2017-05-18T11:58:34.422Z,5.30
2017-05-18T12:01:02.701Z,5.60
2017-05-18T12:03:30.993Z,5.52
2017-05-18T12:05:59.294Z,5.00
2017-05-18T12:08:28.326Z,5.46
2017-05-18T12:10:56.656Z,5.02
2017-05-18T12:13:24.934Z,5.12
2017-05-18T12:15:53.208Z,4.84
2017-05-18T12:18:21.510Z,4.72
2017-05-18T12:20:50.533Z,5.12
2017-05-18T12:23:18.842Z,4.74
2017-05-18T12:25:47.140Z,5.36
2017-05-18T12:28:15.425Z,5.56
2017-05-18T12:30:43.738Z,5.54
2017-05-18T12:33:12.013Z,5.34
2017-05-18T12:35:40.326Z,4.50
2017-05-18T12:38:08.626Z,4.48
2017-05-18T12:40:36.906Z,4.56
2017-05-18T12:43:05.208Z,4.74
2017-05-18T12:45:34.230Z,4.76
2017-05-18T12:48:02.557Z,5.20
2017-05-18T12:50:30.853Z,4.50
2017-05-18T12:52:59.878Z,4.98
2017-05-18T12:55:28.177Z,4.58
2017-05-18T12:57:56.477Z,4.30
2017-05-18T13:00:24.797Z,4.66
2017-05-18T13:02:53.817Z,4.00
2017-05-18T13:05:22.101Z,4.88
2017-05-18T13:07:50.410Z,4.74
2017-05-18T13:10:18.703Z,4.58
2017-05-18T13:12:47.030Z,4.42
2017-05-18T13:15:15.309Z,4.22
2017-05-18T13:17:43.605Z,4.60
2017-05-18T13:20:11.909Z,4.76
2017-05-18T13:22:40.199Z,5.14
2017-05-18T13:25:08.541Z,5.02
2017-05-18T13:27:36.821Z,4.80
2017-05-18T13:30:05.122Z,4.66
2017-05-18T13:32:33.429Z,4.56
2017-05-18T13:35:02.461Z,4.98
2017-05-18T13:37:30.754Z,4.98
2017-05-18T13:39:59.043Z,4.82
2017-05-18T13:42:27.368Z,5.00
2017-05-18T13:44:55.651Z,4.82
2017-05-18T13:47:23.933Z,4.76
2017-05-18T13:49:52.237Z,5.02
2017-05-18T13:52:20.520Z,4.82
2017-05-18T13:54:48.833Z,4.14
2017-05-18T13:57:17.116Z,4.46
2017-05-18T13:59:45.399Z,4.28
2017-05-18T14:02:14.445Z,4.88
2017-05-18T14:04:42.730Z,4.46
2017-05-18T14:07:11.061Z,4.42
2017-05-18T14:09:40.086Z,4.66
2017-05-18T14:12:08.386Z,5.18
2017-05-18T14:14:36.693Z,4.52
2017-05-18T14:17:05.044Z,4.58
2017-05-18T14:19:33.370Z,5.30
2017-05-18T14:22:02.400Z,4.50
2017-05-18T14:24:30.689Z,4.82
2017-05-18T14:26:58.990Z,4.68
2017-05-18T14:29:27.266Z,4.94
2017-05-18T14:31:55.593Z,4.38
2017-05-18T14:34:23.873Z,4.46
2017-05-18T14:36:52.158Z,4.44
2017-05-18T14:39:20.462Z,4.58
2017-05-18T14:41:48.753Z,4.78
2017-05-18T14:44:17.075Z,4.84
2017-05-18T14:46:45.349Z,5.30
2017-05-18T14:49:14.373Z,4.48
2017-05-18T14:51:42.708Z,4.64
2017-05-18T14:54:11.741Z,4.20
2017-05-18T14:56:40.066Z,4.50
2017-05-18T14:59:08.347Z,4.32
2017-05-18T15:01:36.638Z,4.78
2017-05-18T15:04:04.941Z,4.40
2017-05-18T15:06:33.225Z,4.70
2017-05-18T15:09:01.530Z,4.48
2017-05-18T15:11:29.832Z,5.00
2017-05-18T15:13:58.129Z,5.06
2017-05-18T15:16:26.457Z,4.96
2017-05-18T15:18:54.757Z,4.54
2017-05-18T15:21:23.047Z,4.44
2017-05-18T15:23:51.365Z,4.60
2017-05-18T15:26:19.656Z,4.56
2017-05-18T15:28:47.973Z,4.28
2017-05-18T15:31:16.303Z,4.82
2017-05-18T15:33:44.592Z,4.62
2017-05-18T15:36:12.902Z,4.28
2017-05-18T15:38:41.180Z,4.70
2017-05-18T15:41:09.505Z,5.14
2017-05-18T15:43:38.525Z,4.20
2017-05-18T15:46:06.809Z,4.34
2017-05-18T15:48:35.119Z,4.22
2017-05-18T15:51:03.394Z,4.44
2017-05-18T15:53:31.721Z,3.82
2017-05-18T15:56:00.740Z,4.20
2017-05-18T15:58:29.023Z,4.48
2017-05-18T16:00:57.313Z,4.28
2017-05-18T16:03:25.603Z,4.58
2017-05-18T16:05:53.926Z,3.98
2017-05-18T16:08:22.949Z,4.54
2017-05-18T16:10:51.235Z,4.10
2017-05-18T16:13:19.533Z,4.08
2017-05-18T16:15:47.822Z,4.32
2017-05-18T16:18:16.136Z,5.04
2017-05-18T16:20:44.422Z,3.90
2017-05-18T16:23:12.698Z,4.10
2017-05-18T16:25:41.020Z,4.08
2017-05-18T16:28:09.317Z,4.34
2017-05-18T16:30:37.643Z,4.00
2017-05-18T16:33:05.928Z,4.22
2017-05-18T16:35:34.774Z,3.44
2017-05-18T16:38:03.069Z,3.64
2017-05-18T16:40:32.101Z,3.40
2017-05-18T16:43:00.422Z,3.06
2017-05-18T16:45:28.779Z,3.32
2017-05-18T16:47:57.069Z,3.38
2017-05-18T16:50:25.365Z,3.64
2017-05-18T16:52:54.398Z,3.22
2017-05-18T16:55:22.709Z,3.08
2017-05-18T16:57:50.988Z,8.04
2017-05-18T17:00:19.265Z,5.92
2017-05-18T17:02:47.563Z,6.76
2017-05-18T17:05:15.859Z,3.50
2017-05-18T17:07:44.914Z,3.16
2017-05-18T17:10:13.231Z,3.26
2017-05-18T17:12:42.270Z,4.76
2017-05-18T17:15:10.569Z,3.36
2017-05-18T17:17:38.865Z,3.48
2017-05-18T17:20:07.194Z,3.28
2017-05-18T17:22:35.486Z,3.34
2017-05-18T17:25:03.775Z,2.60
2017-05-18T17:27:32.080Z,3.44
2017-05-18T17:30:00.368Z,2.62
2017-05-18T17:32:28.692Z,4.06
2017-05-18T17:34:57.249Z,3.52
2017-05-18T17:37:26.286Z,3.44
2017-05-18T17:39:54.588Z,3.74
2017-05-18T17:42:22.882Z,5.08
2017-05-18T17:44:51.186Z,4.12
2017-05-18T17:47:19.474Z,3.70
2017-05-18T17:49:47.777Z,4.88
2017-05-18T17:52:16.101Z,3.38
2017-05-18T17:54:44.403Z,3.20
2017-05-18T17:57:12.733Z,2.80
2017-05-18T17:59:41.025Z,3.26
2017-05-18T18:02:09.378Z,2.78
2017-05-18T18:04:37.669Z,2.66
2017-05-18T18:07:05.949Z,2.40
2017-05-18T18:09:34.310Z,2.72
2017-05-18T18:12:02.629Z,3.00
2017-05-18T18:14:30.913Z,2.60
2017-05-18T18:16:59.986Z,2.88
2017-05-18T18:19:28.310Z,2.92
2017-05-18T18:21:56.684Z,2.90
2017-05-18T18:24:24.978Z,2.80
2017-05-18T18:26:53.289Z,3.02
2017-05-18T18:29:21.977Z,2.80
2017-05-18T18:31:50.265Z,3.18
2017-05-18T18:34:18.600Z,3.04
2017-05-18T18:36:46.888Z,3.36
2017-05-18T18:39:15.179Z,3.68
2017-05-18T18:41:43.494Z,3.40
2017-05-18T18:44:12.009Z,4.24
2017-05-18T18:46:40.401Z,3.78
2017-05-18T18:49:09.245Z,3.38
2017-05-18T18:51:37.541Z,3.50
2017-05-18T18:54:06.581Z,3.44
2017-05-18T18:56:34.869Z,3.90
2017-05-18T18:59:03.201Z,3.84
2017-05-18T19:01:32.230Z,3.74
2017-05-18T19:04:00.518Z,3.72
2017-05-18T19:06:28.832Z,3.90
2017-05-18T19:08:57.138Z,5.72
2017-05-18T19:11:25.465Z,8.26
2017-05-18T19:13:53.760Z,5.16
2017-05-18T19:16:22.059Z,4.48
2017-05-18T19:18:51.113Z,3.78
2017-05-18T19:21:19.401Z,3.96
2017-05-18T19:23:47.724Z,4.94
2017-05-18T19:26:16.747Z,3.98
2017-05-18T19:28:45.040Z,4.06
2017-05-18T19:31:13.371Z,3.96
2017-05-18T19:33:43.254Z,4.30
2017-05-18T19:36:11.585Z,3.98
2017-05-18T19:38:39.879Z,3.96
2017-05-18T19:41:08.176Z,3.62
2017-05-18T19:43:36.499Z,3.50
2017-05-18T19:46:04.786Z,4.50
2017-05-18T19:48:33.126Z,4.50
2017-05-18T19:51:01.409Z,3.80
2017-05-18T19:53:29.694Z,3.44
2017-05-18T19:55:57.998Z,3.82
2017-05-18T19:58:27.027Z,4.16
2017-05-18T20:00:55.361Z,4.38
2017-05-18T20:03:24.394Z,3.94
2017-05-18T20:05:52.684Z,3.64
2017-05-18T20:08:20.995Z,4.12
2017-05-18T20:10:49.284Z,4.42
2017-05-18T20:13:18.342Z,5.24
2017-05-18T20:15:46.729Z,6.52
2017-05-18T20:18:15.009Z,5.86
2017-05-18T20:20:43.322Z,5.87
2017-05-18T20:23:12.353Z,5.53
2017-05-18T20:25:40.689Z,6.65
2017-05-18T20:28:09.734Z,7.33
2017-05-18T20:30:38.034Z,7.18
2017-05-18T20:33:06.465Z,7.85
2017-05-18T20:35:34.769Z,6.97
2017-05-18T20:38:03.105Z,7.23
2017-05-18T20:40:32.147Z,6.35
2017-05-18T20:43:00.437Z,7.77
2017-05-18T20:45:28.752Z,6.53
2017-05-18T20:47:57.782Z,6.52
2017-05-18T20:50:26.116Z,6.58
2017-05-18T20:52:54.413Z,6.82
2017-05-18T20:55:23.442Z,6.30
2017-05-18T20:57:51.751Z,6.03
2017-05-18T21:00:20.033Z,6.58
2017-05-18T21:02:48.349Z,6.95
2017-05-18T21:05:17.388Z,7.22
2017-05-18T21:07:45.676Z,6.35
2017-05-18T21:10:14.118Z,7.37
2017-05-18T21:12:42.485Z,5.88
2017-05-18T21:15:11.553Z,6.57
2017-05-18T21:17:39.850Z,6.10
2017-05-18T21:20:08.893Z,6.92
2017-05-18T21:22:37.205Z,7.30
2017-05-18T21:25:05.504Z,7.20
2017-05-18T21:27:34.545Z,7.50
2017-05-18T21:30:02.862Z,7.78
2017-05-18T21:32:31.159Z,7.60
2017-05-18T21:35:00.221Z,7.23
2017-05-18T21:37:28.503Z,6.93
2017-05-18T21:39:56.845Z,7.03
2017-05-18T21:42:25.189Z,7.47
2017-05-18T21:44:54.219Z,6.98
2017-05-18T21:47:22.574Z,6.43
2017-05-18T21:49:51.614Z,6.92
2017-05-18T21:52:19.916Z,6.40
2017-05-18T21:54:48.235Z,6.98
2017-05-18T21:57:16.551Z,6.52
2017-05-18T21:59:44.916Z,6.87
2017-05-18T22:02:13.219Z,6.20
2017-05-18T22:04:41.557Z,6.98
2017-05-18T22:07:09.866Z,6.13
2017-05-18T22:09:38.155Z,6.58
2017-05-18T22:12:06.551Z,7.02
2017-05-18T22:14:35.620Z,6.45
2017-05-18T22:17:03.901Z,7.03
2017-05-18T22:19:32.230Z,6.82
2017-05-18T22:22:01.265Z,6.47
2017-05-18T22:24:29.643Z,6.78
2017-05-18T22:26:57.939Z,6.83
2017-05-18T22:29:26.221Z,7.02
2017-05-18T22:31:54.524Z,7.23
2017-05-18T22:34:22.859Z,6.58
2017-05-18T22:36:51.201Z,6.85
2017-05-18T22:39:20.226Z,7.15
2017-05-18T22:41:48.509Z,7.10
2017-05-18T22:44:16.816Z,6.60
2017-05-18T22:46:45.097Z,6.78
2017-05-18T22:49:13.425Z,6.70
2017-05-18T22:51:42.447Z,5.72
2017-05-18T22:54:10.735Z,5.78
2017-05-18T22:56:39.029Z,6.60
2017-05-18T22:59:07.304Z,7.98
2017-05-18T23:01:35.621Z,6.77
2017-05-18T23:04:04.641Z,7.35
2017-05-18T23:06:32.924Z,7.40
2017-05-18T23:09:01.225Z,7.55
2017-05-18T23:11:29.506Z,7.12
2017-05-18T23:13:57.814Z,8.18
2017-05-18T23:16:26.099Z,7.68
2017-05-18T23:18:55.162Z,6.93
2017-05-18T23:21:23.451Z,6.63
2017-05-18T23:23:51.738Z,6.60
2017-05-18T23:26:20.049Z,7.75
2017-05-18T23:28:49.063Z,7.67
2017-05-18T23:31:17.393Z,7.30
2017-05-18T23:33:45.733Z,7.23
2017-05-18T23:36:14.021Z,7.90
2017-05-18T23:38:42.317Z,7.17
2017-05-18T23:41:10.606Z,6.90
2017-05-18T23:43:38.920Z,7.72
2017-05-18T23:46:07.202Z,7.73
2017-05-18T23:48:35.494Z,7.98
2017-05-18T23:51:03.789Z,7.88
2017-05-18T23:53:32.068Z,7.45
2017-05-18T23:56:00.390Z,7.82
2017-05-18T23:58:28.671Z,8.02
